Time;durP1;ratioP1;P1;durP2;ratioP2;P2;SDS_P1;SDS_P2;PMS_P1;PMS_P2;Temp;Humidity;BMP_temperature;BMP_pressure;BME280_temperature;BME280_humidity;BME280_pressure;Samples;Min_cycle;Max_cycle;Signal;HPM_P1;HPM_P2
2022/03/19 00:01:52;;;;;;;24.38;12.85;;;;;;;0.61;51.21;103092.44;5053550;28;20191;-78
2022/03/19 00:04:17;;;;;;;25.67;12.20;;;;;;;0.63;50.81;103098.59;5053496;28;20368;-78
2022/03/19 00:06:46;;;;;;;31.88;12.93;;;;;;;0.63;51.13;103092.41;5053638;28;20501;-78
2022/03/19 00:09:13;;;;;;;21.15;11.93;;;;;;;0.63;50.99;103093.31;5036340;28;20433;-78
2022/03/19 00:11:40;;;;;;;20.95;11.15;;;;;;;0.62;50.91;103091.53;5053489;28;20033;-78
2022/03/19 00:14:06;;;;;;;27.80;12.30;;;;;;;0.59;50.82;103074.75;5053879;28;20025;-78
2022/03/19 00:16:32;;;;;;;25.00;13.18;;;;;;;0.54;51.11;103066.84;5053230;28;20037;-78
2022/03/19 00:18:57;;;;;;;21.45;11.15;;;;;;;0.56;50.86;103065.06;5053255;28;20028;-78
2022/03/19 00:21:23;;;;;;;22.10;11.48;;;;;;;0.69;51.26;103079.16;5053757;28;20497;-78
2022/03/19 00:23:48;;;;;;;18.35;10.82;;;;;;;0.76;50.50;103076.53;5053030;28;20039;-78
2022/03/19 00:26:14;;;;;;;24.95;11.52;;;;;;;0.84;50.27;103074.72;5053371;28;20032;-78
2022/03/19 00:28:41;;;;;;;23.98;11.45;;;;;;;0.83;50.37;103086.19;5035511;28;20040;-78
2022/03/19 00:31:09;;;;;;;20.77;11.27;;;;;;;0.83;50.07;103086.19;5053132;28;20025;-78
2022/03/19 00:33:35;;;;;;;27.67;11.32;;;;;;;0.81;50.34;103082.69;5052939;28;20048;-78
2022/03/19 00:36:00;;;;;;;28.38;11.65;;;;;;;0.82;50.21;103071.22;5053203;28;20021;-79
2022/03/19 00:38:26;;;;;;;21.52;11.65;;;;;;;0.74;50.02;103065.03;5038214;28;20108;-78
2022/03/19 00:40:51;;;;;;;23.83;11.00;;;;;;;0.73;49.59;103068.59;5048490;28;20072;-78
2022/03/19 00:43:21;;;;;;;22.35;11.52;;;;;;;0.71;50.07;103070.34;5033065;28;20476;-79
2022/03/19 00:45:47;;;;;;;30.80;11.48;;;;;;;0.67;49.86;103073.00;5015211;28;20116;-78
2022/03/19 00:48:14;;;;;;;20.05;12.20;;;;;;;0.49;50.08;103040.34;5032867;28;20142;-78
2022/03/19 00:50:39;;;;;;;30.17;12.05;;;;;;;0.66;50.23;103069.47;5050176;28;20514;-78
2022/03/19 00:53:05;;;;;;;96.50;18.83;;;;;;;0.58;50.07;103060.66;5051960;28;20063;-77
2022/03/19 00:55:30;;;;;;;83.28;17.65;;;;;;;0.56;50.46;103065.06;5052504;28;20028;-78
2022/03/19 00:57:56;;;;;;;24.83;13.38;;;;;;;0.54;50.46;103072.13;5052721;28;20033;-77
2022/03/19 01:00:26;;;;;;;23.63;12.45;;;;;;;0.45;50.72;103061.56;5052466;28;20482;-77
2022/03/19 01:02:53;;;;;;;23.05;11.80;;;;;;;0.48;50.97;103064.19;5052890;28;20183;-79
2022/03/19 01:05:19;;;;;;;21.55;12.85;;;;;;;0.50;50.88;103065.06;5052512;28;20473;-79
2022/03/19 01:07:53;;;;;;;28.05;11.93;;;;;;;0.46;50.76;103052.72;5052405;28;20060;-77
2022/03/19 01:10:28;;;;;;;27.65;11.05;;;;;;;0.40;50.67;103063.31;5018897;28;20484;-79
2022/03/19 01:12:54;;;;;;;20.88;11.18;;;;;;;0.32;50.80;103054.50;5032988;28;20306;-77
2022/03/19 01:15:21;;;;;;;30.17;11.55;;;;;;;0.32;51.19;103052.72;5014945;28;20021;-79
2022/03/19 01:17:47;;;;;;;20.15;11.07;;;;;;;0.18;51.07;103041.28;5032965;28;20406;-78
2022/03/19 01:20:14;;;;;;;20.63;11.57;;;;;;;0.24;50.93;103056.28;5047808;28;20024;-77
2022/03/19 01:22:41;;;;;;;18.60;10.80;;;;;;;0.29;50.84;103059.78;5052255;28;20021;-78
2022/03/19 01:25:10;;;;;;;20.50;11.75;;;;;;;0.27;50.81;103054.50;5034971;28;20035;-78
2022/03/19 01:27:37;;;;;;;21.10;11.45;;;;;;;0.28;50.75;103055.38;5034770;28;20036;-78
2022/03/19 01:30:04;;;;;;;18.90;10.93;;;;;;;0.21;50.65;103051.88;5034551;28;20032;-78
2022/03/19 01:32:30;;;;;;;27.48;11.85;;;;;;;0.20;50.39;103046.56;5052443;28;20025;-78
2022/03/19 01:34:55;;;;;;;23.58;11.43;;;;;;;0.22;49.95;103053.59;5052770;28;20391;-78
2022/03/19 01:37:22;;;;;;;21.33;10.85;;;;;;;0.22;49.86;103055.38;5038319;28;20072;-77
2022/03/19 01:39:48;;;;;;;22.48;11.52;;;;;;;0.09;50.00;103053.63;5036286;28;20033;-78
2022/03/19 01:42:29;;;;;;;27.70;11.60;;;;;;;0.09;50.28;103054.50;5053633;28;20047;-77
2022/03/19 01:44:55;;;;;;;19.75;10.80;;;;;;;0.05;49.93;103043.91;5052249;28;20029;-77
2022/03/19 01:47:23;;;;;;;21.10;11.27;;;;;;;0.06;50.24;103053.63;5052447;28;20025;-78
2022/03/19 01:49:49;;;;;;;31.58;12.35;;;;;;;0.08;50.14;103049.19;5052254;28;20021;-77
2022/03/19 01:52:14;;;;;;;24.65;10.30;;;;;;;0.13;49.55;103040.38;5051970;28;20025;-78
2022/03/19 01:54:43;;;;;;;20.95;9.80;;;;;;;0.23;49.53;103051.84;5051122;28;20078;-79
2022/03/19 01:57:11;;;;;;;16.50;10.30;;;;;;;0.13;49.22;103027.16;5051562;28;20029;-78
2022/03/19 01:59:37;;;;;;;17.88;10.40;;;;;;;0.30;48.99;103040.38;5034342;28;20482;-78
2022/03/19 02:02:05;;;;;;;25.25;9.93;;;;;;;0.37;49.14;103047.41;5051997;28;20095;-78
2022/03/19 02:04:33;;;;;;;20.95;10.45;;;;;;;0.34;48.59;103052.72;5051548;28;20053;-79
2022/03/19 02:06:59;;;;;;;24.52;10.52;;;;;;;0.21;49.20;103050.97;5044063;28;20108;-77
2022/03/19 02:09:25;;;;;;;20.27;10.23;;;;;;;0.27;49.04;103040.38;5036799;28;20107;-77
2022/03/19 02:11:51;;;;;;;21.45;10.73;;;;;;;0.16;48.79;103029.78;5055890;28;20447;-77
2022/03/19 02:14:18;;;;;;;16.52;10.10;;;;;;;0.21;48.30;103032.47;5055367;28;20096;-77
2022/03/19 02:16:44;;;;;;;20.02;10.52;;;;;;;0.15;48.68;103027.16;5055399;28;20128;-77
2022/03/19 02:19:10;;;;;;;27.52;10.23;;;;;;;0.27;48.87;103050.97;5055742;28;20099;-77
2022/03/19 02:21:41;;;;;;;16.83;9.35;;;;;;;0.23;48.92;103023.63;5038040;28;20037;-77
2022/03/19 02:26:50;;;;;;;23.08;10.02;;;;;;;0.17;48.75;103038.63;5036480;28;20044;-78
2022/03/19 02:29:16;;;;;;;16.88;9.20;;;;;;;0.11;48.84;103023.63;5035627;28;20017;-78
2022/03/19 02:31:44;;;;;;;13.98;8.48;;;;;;;0.18;49.31;103037.75;5036853;28;20036;-77
2022/03/19 02:34:10;;;;;;;19.13;10.88;;;;;;;0.12;49.47;103048.34;5037624;28;20033;-77
2022/03/19 02:36:41;;;;;;;26.00;10.55;;;;;;;0.10;49.75;103055.38;5055411;28;20029;-77
2022/03/19 02:39:18;;;;;;;15.27;9.57;;;;;;;-0.01;49.62;103042.16;5037748;28;20403;-78
2022/03/19 02:41:45;;;;;;;32.85;10.10;;;;;;;0.07;49.65;103044.78;5028979;28;20454;-78
2022/03/19 02:44:12;;;;;;;13.18;8.40;;;;;;;0.03;49.51;103033.34;5044353;28;20025;-78
2022/03/19 02:46:42;;;;;;;15.63;8.63;;;;;;;0.08;49.17;103038.63;5037521;28;20479;-77
2022/03/19 02:49:08;;;;;;;22.02;9.73;;;;;;;0.03;49.33;103032.47;5055347;28;20031;-78
2022/03/19 02:51:38;;;;;;;17.17;9.77;;;;;;;0.18;48.77;103040.41;5045379;28;20397;-77
2022/03/19 02:54:06;;;;;;;20.70;9.48;;;;;;;0.12;48.93;103050.97;5049541;28;20028;-77
2022/03/19 02:56:36;;;;;;;14.70;8.00;;;;;;;0.11;48.98;103022.75;5055293;28;20029;-78
2022/03/19 02:59:10;;;;;;;20.38;9.07;;;;;;;0.10;48.81;103036.84;5037297;28;20047;-79
2022/03/19 03:01:37;;;;;;;14.88;8.02;;;;;;;0.16;49.05;103047.44;5044858;28;20045;-77
2022/03/19 03:04:03;;;;;;;16.25;9.05;;;;;;;0.20;49.05;103039.50;5048775;28;20041;-77
2022/03/19 03:06:34;;;;;;;17.00;8.80;;;;;;;0.27;48.33;103040.38;5036750;28;20035;-77
2022/03/19 03:09:00;;;;;;;14.82;8.82;;;;;;;0.26;48.20;103050.09;5054669;28;20451;-78
2022/03/19 03:11:25;;;;;;;18.67;9.70;;;;;;;0.27;48.33;103035.09;5035984;28;20036;-78
2022/03/19 03:13:51;;;;;;;16.60;8.35;;;;;;;0.24;48.22;103035.09;5036417;28;20125;-77
2022/03/19 03:16:17;;;;;;;18.52;9.98;;;;;;;0.34;48.25;103048.31;5054708;28;20029;-79
2022/03/19 03:18:43;;;;;;;18.65;9.15;;;;;;;0.28;48.45;103053.59;5054966;28;20025;-79
2022/03/19 03:21:08;;;;;;;16.20;9.48;;;;;;;0.29;48.58;103043.91;5022063;28;20537;-77
2022/03/19 03:23:34;;;;;;;15.65;9.18;;;;;;;0.27;48.57;103048.34;5036833;28;20069;-77
2022/03/19 03:25:59;;;;;;;15.18;9.15;;;;;;;0.16;48.73;103052.72;5054032;28;20029;-77
2022/03/19 03:28:25;;;;;;;16.17;9.32;;;;;;;0.06;48.76;103040.41;5053970;28;20060;-78
2022/03/19 03:30:51;;;;;;;15.15;8.20;;;;;;;0.02;49.04;103039.50;5035699;28;20033;-78
2022/03/19 03:33:16;;;;;;;18.02;7.90;;;;;;;0.11;49.61;103054.50;5054167;28;20021;-77
2022/03/19 03:35:42;;;;;;;19.35;9.70;;;;;;;0.10;49.42;103058.00;5054353;28;20035;-77
2022/03/19 03:38:07;;;;;;;17.83;9.40;;;;;;;0.07;49.57;103058.91;5054643;28;20052;-77
2022/03/19 03:40:33;;;;;;;15.77;8.73;;;;;;;0.10;48.95;103058.00;5022048;28;20044;-77
2022/03/19 03:42:58;;;;;;;19.20;8.65;;;;;;;0.02;48.80;103050.09;5041254;28;20017;-77
2022/03/19 03:45:28;;;;;;;16.33;8.23;;;;;;;0.09;49.16;103056.28;5053898;28;20025;-77
2022/03/19 03:47:54;;;;;;;16.58;9.10;;;;;;;0.19;49.05;103068.59;5036104;28;20021;-77
2022/03/19 03:50:20;;;;;;;16.63;8.50;;;;;;;0.05;48.86;103068.59;5054644;28;20025;-79
2022/03/19 03:52:45;;;;;;;16.83;9.48;;;;;;;0.09;49.09;103074.78;5052664;28;20115;-77
2022/03/19 03:55:11;;;;;;;19.33;9.15;;;;;;;0.04;49.15;103063.31;5054329;28;20262;-79
2022/03/19 03:57:37;;;;;;;16.92;9.30;;;;;;;-0.06;48.87;103089.75;5054153;28;20051;-79
2022/03/19 04:00:04;;;;;;;15.27;8.63;;;;;;;-0.19;49.59;103064.19;5036424;28;20028;-77
2022/03/19 04:02:29;;;;;;;16.65;9.35;;;;;;;-0.18;50.07;103063.28;5054765;28;20020;-79
2022/03/19 04:04:55;;;;;;;16.13;8.90;;;;;;;-0.19;49.65;103061.53;5054068;28;20048;-79
2022/03/19 04:07:21;;;;;;;20.33;10.13;;;;;;;-0.22;49.61;103077.41;5054312;28;20032;-77
2022/03/19 04:09:47;;;;;;;14.07;8.82;;;;;;;-0.19;50.41;103082.69;5031987;28;20033;-77
2022/03/19 04:12:14;;;;;;;17.80;9.82;;;;;;;-0.29;50.78;103096.75;5024037;28;20043;-78
2022/03/19 04:14:40;;;;;;;17.33;9.73;;;;;;;-0.33;50.72;103083.50;5034521;28;20021;-78
2022/03/19 04:17:06;;;;;;;13.82;8.60;;;;;;;-0.48;50.70;103062.31;5034858;28;20109;-77
2022/03/19 04:19:32;;;;;;;23.08;9.48;;;;;;;-0.32;50.66;103095.88;5034445;28;20025;-77
2022/03/19 04:21:58;;;;;;;16.73;9.65;;;;;;;-0.48;50.83;103067.59;5034706;28;20024;-77
2022/03/19 04:24:23;;;;;;;31.10;11.50;;;;;;;-0.62;51.08;103062.28;5054255;28;20025;-77
2022/03/19 04:26:48;;;;;;;18.90;9.82;;;;;;;-0.57;51.63;103065.81;5054596;28;20079;-79
2022/03/19 04:29:14;;;;;;;24.52;9.98;;;;;;;-0.50;51.59;103086.13;5053466;28;20025;-77
2022/03/19 04:31:39;;;;;;;15.70;10.05;;;;;;;-0.63;51.87;103068.44;5052593;28;20035;-78
2022/03/19 04:34:05;;;;;;;18.65;9.90;;;;;;;-0.57;51.63;103073.75;5053693;28;20123;-78
2022/03/19 04:36:30;;;;;;;20.30;10.50;;;;;;;-0.65;51.91;103070.22;5035645;28;20025;-79
2022/03/19 04:39:00;;;;;;;17.42;9.23;;;;;;;-0.56;51.50;103062.31;5053698;28;20036;-78
2022/03/19 04:41:26;;;;;;;47.88;11.88;;;;;;;-0.72;52.05;103063.13;5053060;28;20112;-78
2022/03/19 04:43:52;;;;;;;18.83;9.52;;;;;;;-0.76;51.93;103075.44;5053131;28;20474;-78
2022/03/19 04:46:18;;;;;;;21.33;10.63;;;;;;;-0.67;51.92;103069.31;5053470;28;20027;-78
2022/03/19 04:48:45;;;;;;;20.52;10.13;;;;;;;-0.72;52.14;103064.00;5053158;28;20486;-78
2022/03/19 04:51:16;;;;;;;23.50;9.93;;;;;;;-0.57;51.68;103090.50;5052008;28;20082;-77
2022/03/19 04:53:42;;;;;;;26.27;10.38;;;;;;;-0.54;51.58;103100.19;5053094;28;20056;-78
2022/03/19 04:56:08;;;;;;;22.80;9.95;;;;;;;-0.57;51.53;103085.22;5052518;28;20104;-80
2022/03/19 04:58:34;;;;;;;18.05;8.77;;;;;;;-0.46;51.49;103093.19;5052891;28;20126;-78
2022/03/19 05:01:00;;;;;;;15.40;9.32;;;;;;;-0.38;51.16;103102.03;5052121;28;20033;-77
2022/03/19 05:03:25;;;;;;;17.77;9.15;;;;;;;-0.40;51.47;103098.50;5052869;28;20067;-80
2022/03/19 05:05:51;;;;;;;21.20;8.98;;;;;;;-0.39;51.40;103078.22;5033978;28;20092;-78
2022/03/19 05:08:17;;;;;;;18.35;9.48;;;;;;;-0.35;51.13;103091.44;5032991;28;20390;-78
2022/03/19 05:13:28;;;;;;;19.02;9.48;;;;;;;-0.40;50.84;103090.56;5033198;28;20392;-79
2022/03/19 05:15:53;;;;;;;18.00;9.60;;;;;;;-0.21;50.72;103100.28;5032642;28;20026;-79
2022/03/19 05:18:19;;;;;;;20.80;9.35;;;;;;;-0.25;50.95;103109.13;5014874;28;20170;-78
2022/03/19 05:20:45;;;;;;;25.75;10.20;;;;;;;-0.26;51.13;103117.91;5031776;28;20033;-77
2022/03/19 05:23:11;;;;;;;19.08;9.70;;;;;;;-0.23;50.94;103112.63;5033021;28;20403;-79
2022/03/19 05:25:36;;;;;;;22.48;9.65;;;;;;;-0.17;50.54;103094.13;5032336;28;20049;-79
2022/03/19 05:28:03;;;;;;;17.90;8.95;;;;;;;-0.09;50.70;103112.66;5032593;28;20049;-78
2022/03/19 05:30:28;;;;;;;15.38;8.48;;;;;;;-0.12;50.77;103113.53;5031610;28;20036;-77
2022/03/19 05:32:54;;;;;;;21.98;9.88;;;;;;;-0.06;50.27;103121.47;5032686;28;20025;-77
2022/03/19 05:35:21;;;;;;;25.65;10.55;;;;;;;0.04;50.34;103124.16;5032638;28;20025;-79
2022/03/19 05:37:47;;;;;;;17.08;9.10;;;;;;;0.12;50.37;103117.13;5032561;28;20107;-78
2022/03/19 05:40:14;;;;;;;17.42;9.15;;;;;;;0.12;50.06;103111.84;5030907;28;20061;-78
2022/03/19 05:42:40;;;;;;;26.15;9.38;;;;;;;0.11;50.23;103103.00;5032545;28;20025;-77
2022/03/19 05:45:05;;;;;;;17.73;8.65;;;;;;;0.28;49.99;103113.59;5032582;28;20376;-78
2022/03/19 05:47:31;;;;;;;20.30;9.75;;;;;;;0.27;49.52;103112.75;5032392;28;20402;-75
2022/03/19 05:49:56;;;;;;;34.65;9.57;;;;;;;0.40;49.85;103124.19;5013566;28;20021;-77
2022/03/19 05:52:22;;;;;;;28.58;10.82;;;;;;;0.47;49.02;103125.97;5032293;28;20030;-79
2022/03/19 05:54:48;;;;;;;21.75;12.02;;;;;;;0.54;49.73;103119.78;5032237;28;20033;-79
2022/03/19 05:57:13;;;;;;;14.85;8.82;;;;;;;0.58;49.22;103120.69;5032407;28;20052;-78
2022/03/19 05:59:52;;;;;;;20.90;9.25;;;;;;;0.66;48.88;103113.59;5031964;28;20053;-80
2022/03/19 06:02:17;;;;;;;17.17;9.30;;;;;;;0.65;49.28;103107.41;5051604;28;20036;-78
2022/03/19 06:04:43;;;;;;;30.70;9.63;;;;;;;0.77;49.12;103111.81;5052086;28;20487;-78
2022/03/19 06:07:08;;;;;;;20.75;8.65;;;;;;;0.88;48.38;103116.25;5052369;28;20080;-79
2022/03/19 06:09:34;;;;;;;18.73;9.05;;;;;;;0.97;48.44;103113.56;5039323;28;20080;-78
2022/03/19 06:11:59;;;;;;;21.95;9.57;;;;;;;1.08;47.95;103134.72;5032278;28;20032;-78
2022/03/19 06:14:25;;;;;;;19.27;9.38;;;;;;;1.09;48.04;103123.25;5031945;28;20411;-78
2022/03/19 06:16:50;;;;;;;18.98;10.60;;;;;;;1.17;47.92;103117.91;5014410;28;20102;-80
2022/03/19 06:19:17;;;;;;;16.08;8.73;;;;;;;1.28;47.66;103137.34;5032878;28;20053;-77
2022/03/19 06:21:44;;;;;;;23.88;9.40;;;;;;;1.27;47.49;103130.25;5032235;28;20025;-77
2022/03/19 06:24:09;;;;;;;17.85;9.57;;;;;;;1.29;47.64;103128.47;5032203;28;20112;-77
2022/03/19 06:26:36;;;;;;;16.40;8.50;;;;;;;1.34;47.94;103137.31;5032395;28;20119;-77
2022/03/19 06:29:01;;;;;;;25.65;8.90;;;;;;;1.38;48.17;103133.75;5031862;28;20025;-78
2022/03/19 06:31:27;;;;;;;24.02;8.45;;;;;;;1.35;47.17;103113.44;5031655;28;20368;-77
2022/03/19 06:33:54;;;;;;;16.80;9.23;;;;;;;1.45;46.99;103127.53;5031333;28;20053;-78
2022/03/19 06:39:05;;;;;;;20.52;10.43;;;;;;;1.58;46.81;103145.19;5031930;28;20530;-77
2022/03/19 06:41:30;;;;;;;13.38;7.80;;;;;;;1.58;47.11;103147.84;5031868;28;20036;-77
2022/03/19 06:43:56;;;;;;;17.40;7.60;;;;;;;1.73;46.50;103147.75;5032239;28;20479;-78
2022/03/19 06:46:22;;;;;;;16.30;8.20;;;;;;;1.79;46.12;103158.34;5030774;28;20384;-78
2022/03/19 06:48:49;;;;;;;18.10;8.13;;;;;;;1.77;45.55;103168.09;5033379;28;20062;-78
2022/03/19 06:51:17;;;;;;;18.35;8.77;;;;;;;1.83;45.41;103165.41;5036686;28;20045;-78
2022/03/19 06:53:42;;;;;;;13.85;7.15;;;;;;;1.91;45.23;103152.97;5038166;28;20048;-78
2022/03/19 06:56:08;;;;;;;18.95;7.80;;;;;;;1.95;44.38;103157.38;5036386;28;20448;-77
2022/03/19 06:58:33;;;;;;;15.63;7.53;;;;;;;2.00;44.26;103157.34;5036768;28;20025;-77
2022/03/19 07:01:03;;;;;;;12.13;7.43;;;;;;;2.06;44.38;103159.97;5017785;28;20056;-78
2022/03/19 07:03:29;;;;;;;14.65;7.75;;;;;;;1.96;44.53;103140.56;5035963;28;20056;-79
2022/03/19 07:05:55;;;;;;;15.07;8.05;;;;;;;2.09;43.72;103155.53;5037409;28;20041;-79
2022/03/19 07:08:20;;;;;;;12.02;8.02;;;;;;;2.05;43.81;103129.88;5055722;28;20548;-78
2022/03/19 07:10:45;;;;;;;13.27;7.50;;;;;;;2.37;43.77;103161.53;5055882;28;20047;-78
2022/03/19 07:13:11;;;;;;;16.65;6.80;;;;;;;2.49;43.73;103155.25;5054966;28;20380;-80
2022/03/19 07:15:37;;;;;;;11.10;6.80;;;;;;;2.67;42.61;103163.06;5056179;28;20047;-80
2022/03/19 07:18:02;;;;;;;13.85;7.28;;;;;;;2.73;42.25;103163.91;5056287;28;20025;-79
2022/03/19 07:20:30;;;;;;;16.98;7.72;;;;;;;2.86;41.78;103164.69;5037703;28;20090;-78
2022/03/19 07:23:01;;;;;;;11.73;6.00;;;;;;;2.68;41.61;103127.66;5036809;28;20094;-78
2022/03/19 07:25:31;;;;;;;17.92;7.10;;;;;;;2.85;41.88;103151.38;5055177;28;20025;-78
2022/03/19 07:27:59;;;;;;;14.32;7.03;;;;;;;2.92;41.88;103146.00;5054927;28;20055;-77
2022/03/19 07:30:25;;;;;;;17.23;9.10;;;;;;;3.01;41.56;103139.72;5054133;28;20048;-79
2022/03/19 07:32:51;;;;;;;12.77;6.60;;;;;;;3.19;41.53;103152.81;5054492;28;20106;-78
2022/03/19 07:35:16;;;;;;;16.33;6.85;;;;;;;3.24;40.88;103141.22;5053810;28;20036;-77
2022/03/19 07:37:43;;;;;;;14.55;7.70;;;;;;;3.36;41.28;103160.63;5054173;28;20021;-78
2022/03/19 07:40:11;;;;;;;11.45;6.43;;;;;;;3.38;40.41;103149.06;5054252;28;20021;-78
2022/03/19 07:42:37;;;;;;;12.05;6.45;;;;;;;3.28;40.79;103137.66;5052440;28;20028;-80
2022/03/19 07:45:04;;;;;;;12.77;7.38;;;;;;;3.38;41.45;103153.50;5053621;28;20545;-77
2022/03/19 07:47:30;;;;;;;11.30;6.57;;;;;;;3.38;40.75;103148.19;5048891;28;20025;-79
2022/03/19 07:49:56;;;;;;;14.23;7.20;;;;;;;3.36;40.62;103145.56;5047067;28;20056;-77
2022/03/19 07:52:23;;;;;;;18.35;7.75;;;;;;;3.35;40.88;103149.13;5034683;28;20033;-78
2022/03/19 07:54:48;;;;;;;17.38;8.13;;;;;;;3.30;40.66;103138.50;5052777;28;20021;-79
2022/03/19 07:57:14;;;;;;;18.90;7.00;;;;;;;3.39;40.80;103147.31;5054069;28;20510;-80
2022/03/19 07:59:40;;;;;;;11.07;6.43;;;;;;;3.45;40.87;103148.13;5054098;28;20052;-78
2022/03/19 08:02:05;;;;;;;22.13;7.03;;;;;;;3.45;41.17;103141.91;5053972;28;20498;-77
2022/03/19 08:04:31;;;;;;;12.57;7.85;;;;;;;3.63;40.60;103145.22;5052778;28;20194;-78
2022/03/19 08:06:57;;;;;;;13.45;6.90;;;;;;;3.64;40.12;103152.28;5053543;28;20025;-78
2022/03/19 08:09:23;;;;;;;12.35;7.35;;;;;;;3.56;40.63;103147.97;5034119;28;20513;-79
2022/03/19 08:11:50;;;;;;;16.77;6.90;;;;;;;3.47;40.68;103132.13;5053904;28;20024;-78
2022/03/19 08:14:16;;;;;;;11.80;7.13;;;;;;;3.50;40.61;103148.94;5052874;28;20040;-80
2022/03/19 08:16:43;;;;;;;17.80;9.73;;;;;;;3.54;40.11;103123.19;5053230;28;20079;-79
2022/03/19 08:19:12;;;;;;;16.80;7.32;;;;;;;3.63;40.27;103128.38;5053785;28;20032;-80
2022/03/19 08:21:44;;;;;;;16.63;8.00;;;;;;;3.78;40.25;103142.38;5054049;28;20045;-79
2022/03/19 08:24:11;;;;;;;17.02;6.75;;;;;;;3.81;39.42;103130.78;5053980;28;20033;-80
2022/03/19 08:26:38;;;;;;;16.65;6.85;;;;;;;3.80;39.77;103132.56;5052098;28;20075;-79
2022/03/19 08:29:04;;;;;;;20.45;7.45;;;;;;;3.63;39.64;103123.06;5054392;28;20480;-78
2022/03/19 08:31:31;;;;;;;22.45;8.05;;;;;;;3.74;39.90;103119.34;5055670;28;20031;-77
2022/03/19 08:33:57;;;;;;;24.42;7.70;;;;;;;3.87;40.12;103105.88;5051102;28;20398;-78
2022/03/19 08:36:24;;;;;;;15.13;8.07;;;;;;;4.14;39.26;103130.31;5052166;28;20028;-79
2022/03/19 08:41:34;;;;;;;20.83;9.70;;;;;;;4.48;39.07;103121.78;5053294;28;20502;-78
2022/03/19 08:43:59;;;;;;;20.38;9.85;;;;;;;4.51;38.74;103114.63;5052737;28;20021;-78
2022/03/19 08:46:26;;;;;;;20.02;10.13;;;;;;;4.58;38.35;103120.75;5051728;28;20560;-78
2022/03/19 08:48:51;;;;;;;11.95;6.90;;;;;;;4.65;38.45;103109.06;5051680;28;20024;-78
2022/03/19 08:54:03;;;;;;;17.35;7.93;;;;;;;4.74;38.02;103119.59;5037362;28;20039;-77
2022/03/19 08:56:29;;;;;;;12.00;6.88;;;;;;;4.78;37.88;103122.16;5051728;28;20020;-78
2022/03/19 08:58:55;;;;;;;16.25;6.88;;;;;;;4.77;38.13;103130.19;5050861;28;20029;-77
2022/03/19 09:01:21;;;;;;;10.82;6.28;;;;;;;4.76;37.21;103133.75;5052991;28;20501;-78
2022/03/19 09:03:47;;;;;;;16.92;7.65;;;;;;;4.80;37.24;103139.00;5052571;28;20472;-77
2022/03/19 09:06:14;;;;;;;26.65;9.32;;;;;;;4.75;36.47;103129.31;5052584;28;20128;-78
2022/03/19 09:08:42;;;;;;;14.77;7.20;;;;;;;4.81;36.57;103142.53;5052299;28;20029;-77
2022/03/19 09:11:07;;;;;;;50.28;8.25;;;;;;;4.70;37.09;103137.41;5052550;28;20167;-78
2022/03/19 09:13:33;;;;;;;15.70;6.47;;;;;;;4.62;37.13;103111.78;5052544;28;20020;-77
2022/03/19 09:15:59;;;;;;;17.17;6.85;;;;;;;4.82;37.00;103123.88;5052647;28;20074;-78
2022/03/19 09:18:26;;;;;;;14.05;7.30;;;;;;;4.74;36.98;103109.78;5052029;28;20380;-78
2022/03/19 09:20:51;;;;;;;14.15;8.45;;;;;;;4.99;37.01;103136.88;5052302;28;20039;-79
2022/03/19 09:23:17;;;;;;;14.38;7.28;;;;;;;5.09;37.06;103122.47;5034496;28;20029;-78
2022/03/19 09:25:42;;;;;;;12.57;7.13;;;;;;;5.18;36.93;103124.09;5052030;28;20082;-77
2022/03/19 09:28:08;;;;;;;12.55;7.57;;;;;;;5.30;37.11;103122.06;5052736;28;20033;-80
2022/03/19 09:30:34;;;;;;;13.63;7.13;;;;;;;5.49;36.09;103112.78;5055579;28;20482;-78
2022/03/19 09:33:00;;;;;;;11.77;6.68;;;;;;;5.67;35.83;103115.97;5053288;28;20025;-77
2022/03/19 09:35:26;;;;;;;16.55;8.02;;;;;;;5.74;35.74;103115.81;5034884;28;20034;-78
2022/03/19 09:37:51;;;;;;;9.75;6.82;;;;;;;5.84;36.50;103122.69;5052226;28;20028;-79
2022/03/19 09:40:18;;;;;;;13.40;6.28;;;;;;;5.91;35.52;103112.78;5052697;28;20043;-78
2022/03/19 09:42:52;;;;;;;9.02;6.40;;;;;;;5.87;35.33;103129.81;5035078;28;20470;-78
2022/03/19 09:45:19;;;;;;;13.20;5.85;;;;;;;5.88;35.11;103134.22;5053303;28;20032;-78
2022/03/19 09:47:45;;;;;;;21.38;6.88;;;;;;;5.95;35.65;103128.72;5053044;28;20052;-79
2022/03/19 09:50:10;;;;;;;10.88;6.38;;;;;;;6.08;35.35;103124.00;5052911;28;20044;-78
2022/03/19 09:52:37;;;;;;;10.85;6.05;;;;;;;6.03;35.56;103141.91;5053215;28;20032;-79
2022/03/19 09:55:03;;;;;;;10.13;6.40;;;;;;;5.87;35.58;103136.00;5052658;28;20083;-78
2022/03/19 09:57:29;;;;;;;12.95;6.53;;;;;;;5.85;35.53;103151.19;5052405;28;20100;-77
2022/03/19 10:00:07;;;;;;;10.73;5.65;;;;;;;5.86;35.46;103142.28;5052162;28;20551;-77
2022/03/19 10:02:33;;;;;;;10.90;6.47;;;;;;;5.84;35.73;103140.53;5053067;28;20031;-79
2022/03/19 10:08:35;;;;;;;12.38;6.55;;;;;;;5.56;35.97;103108.19;5052779;28;20045;-78
2022/03/19 10:10:33;;;;;;;15.85;6.45;;;;;;;5.81;35.42;103145.94;5053533;28;20060;-79
2022/03/19 10:12:59;;;;;;;15.73;8.80;;;;;;;5.86;35.61;103149.41;5052629;28;20024;-79
2022/03/19 10:15:25;;;;;;;11.23;6.78;;;;;;;5.95;35.08;103139.41;5051302;28;20080;-77
2022/03/19 10:17:59;;;;;;;15.18;7.95;;;;;;;6.21;35.19;103132.59;5051137;28;20029;-78
2022/03/19 10:20:25;;;;;;;15.00;5.75;;;;;;;6.24;34.87;103116.50;5051298;28;20120;-77
2022/03/19 10:22:50;;;;;;;16.17;7.13;;;;;;;6.22;34.42;103129.00;5051089;28;20103;-79
2022/03/19 10:25:18;;;;;;;10.25;6.35;;;;;;;6.23;34.48;103137.00;5050515;28;20098;-79
2022/03/19 10:27:45;;;;;;;13.05;5.70;;;;;;;6.15;34.57;103136.28;5034635;28;20021;-77
2022/03/19 10:30:20;;;;;;;10.95;6.20;;;;;;;6.10;34.52;103135.50;5054561;28;20410;-78
2022/03/19 10:32:51;;;;;;;9.73;6.53;;;;;;;5.99;34.94;103135.75;5054368;28;20021;-80
2022/03/19 10:35:49;;;;;;;13.90;6.67;;;;;;;5.98;35.25;103122.44;5054296;28;20079;-77
2022/03/19 10:38:22;;;;;;;12.70;6.30;;;;;;;5.94;35.51;103108.25;4990962;28;20041;-78
2022/03/19 10:40:53;;;;;;;11.90;6.43;;;;;;;6.10;35.08;103111.47;5034737;28;20076;-78
2022/03/19 10:43:22;;;;;;;14.05;5.75;;;;;;;6.28;34.83;103120.84;5034993;28;20025;-78
2022/03/19 10:45:52;;;;;;;26.02;5.70;;;;;;;6.39;34.90;103118.81;5053205;28;20111;-78
2022/03/19 10:48:25;;;;;;;10.80;5.55;;;;;;;6.47;34.72;103107.00;5054473;28;20028;-77
2022/03/19 10:50:52;;;;;;;8.38;5.03;;;;;;;6.54;34.65;103107.72;5054297;28;20031;-78
2022/03/19 10:53:19;;;;;;;12.30;5.63;;;;;;;6.73;34.60;103102.78;5036436;28;20025;-78
2022/03/19 10:55:45;;;;;;;11.15;6.25;;;;;;;6.90;34.45;103106.78;5054020;28;20087;-77
2022/03/19 10:58:12;;;;;;;10.45;5.30;;;;;;;6.94;33.70;103112.94;5054371;28;20082;-78
2022/03/19 11:00:37;;;;;;;6.45;5.07;;;;;;;7.19;33.44;103097.94;5053343;28;20035;-77
2022/03/19 11:03:11;;;;;;;8.63;5.65;;;;;;;7.31;33.26;103102.94;5054292;28;20037;-78
2022/03/19 11:05:38;;;;;;;16.05;8.35;;;;;;;7.09;33.54;103093.78;5053702;28;20046;-78
2022/03/19 11:08:08;;;;;;;9.77;6.07;;;;;;;7.02;33.68;103090.38;5053990;28;20483;-78
2022/03/19 11:10:38;;;;;;;14.55;6.95;;;;;;;7.04;33.91;103093.00;5054036;28;20426;-78
2022/03/19 11:13:06;;;;;;;13.32;6.80;;;;;;;6.94;33.55;103075.47;5054044;28;20094;-78
2022/03/19 11:15:34;;;;;;;92.72;12.32;;;;;;;6.99;33.57;103076.22;5052847;28;20078;-80
2022/03/19 11:18:05;;;;;;;15.48;7.90;;;;;;;6.99;33.61;103081.56;5053341;28;20602;-78
2022/03/19 11:20:31;;;;;;;11.98;5.78;;;;;;;6.81;33.80;103049.97;5054445;28;20035;-77
2022/03/19 11:22:59;;;;;;;11.45;6.32;;;;;;;6.98;33.66;103066.41;5054130;28;20021;-78
2022/03/19 11:25:27;;;;;;;18.00;6.55;;;;;;;7.26;34.00;103079.91;5053769;28;20025;-78
2022/03/19 11:27:58;;;;;;;12.75;5.95;;;;;;;7.28;33.40;103078.94;5053526;28;20051;-77
2022/03/19 11:30:32;;;;;;;13.15;5.80;;;;;;;7.26;32.82;103080.78;5053753;28;20411;-77
2022/03/19 11:33:08;;;;;;;13.10;5.22;;;;;;;7.08;32.66;103082.19;5053061;28;20024;-79
2022/03/19 11:35:38;;;;;;;13.13;5.82;;;;;;;6.91;32.92;103056.84;5048507;28;20017;-77
2022/03/19 11:38:13;;;;;;;9.35;5.55;;;;;;;6.97;32.86;103065.53;5068263;28;20357;-78